Time;durP1;ratioP1;P1;durP2;ratioP2;P2;SDS_P1;SDS_P2;PMS_P1;PMS_P2;Temp;Humidity;BMP_temperature;BMP_pressure;BME280_temperature;BME280_humidity;BME280_pressure;Samples;Min_cycle;Max_cycle;Signal;HPM_P1;HPM_P2
2021/12/14 00:02:13;;;;;;;8.70;6.60;;;;;;;;;;5115822;28;20207;-82
2021/12/14 00:04:42;;;;;;;7.47;6.03;;;;;;;;;;5115832;28;20231;-82
2021/12/14 00:07:14;;;;;;;9.27;8.20;;;;;;;;;;5115845;28;20312;-82
2021/12/14 00:09:43;;;;;;;9.00;6.30;;;;;;;;;;5115761;28;20225;-82
2021/12/14 00:12:26;;;;;;;10.70;9.00;;;;;;;;;;5115874;28;20203;-82
2021/12/14 00:15:04;;;;;;;8.60;5.90;;;;;;;;;;5115716;28;20267;-82
2021/12/14 00:17:35;;;;;;;10.40;8.60;;;;;;;;;;5115840;28;20186;-82
2021/12/14 00:20:07;;;;;;;10.97;8.97;;;;;;;;;;5115659;28;20238;-82
2021/12/14 00:24:06;;;;;;;14.07;10.20;;;;;;;;;;5115835;28;20195;-82
2021/12/14 00:25:27;;;;;;;8.77;6.77;;;;;;;;;;5115543;28;20287;-82
2021/12/14 00:27:56;;;;;;;8.90;6.50;;;;;;;;;;5115350;28;20293;-82
2021/12/14 00:30:24;;;;;;;12.30;8.00;;;;;;;;;;5115134;28;20224;-82
2021/12/14 00:32:53;;;;;;;13.57;10.30;;;;;;;;;;5114998;28;20199;-82
2021/12/14 00:35:21;;;;;;;10.63;7.33;;;;;;;;;;5115210;28;20199;-82
2021/12/14 00:37:52;;;;;;;5.80;4.77;;;;;;;;;;5115608;28;20234;-82
2021/12/14 00:40:22;;;;;;;15.37;11.73;;;;;;;;;;5115088;28;20290;-82
2021/12/14 00:42:51;;;;;;;11.67;7.10;;;;;;;;;;5115496;28;20207;-82
2021/12/14 00:45:20;;;;;;;15.90;13.47;;;;;;;;;;5114760;28;20252;-82
2021/12/14 00:47:49;;;;;;;9.67;6.37;;;;;;;;;;5115215;28;20281;-83
2021/12/14 00:50:19;;;;;;;13.93;11.20;;;;;;;;;;5114252;28;20238;-82
2021/12/14 00:52:48;;;;;;;12.37;10.47;;;;;;;;;;5114860;28;20191;-82
2021/12/14 00:55:20;;;;;;;13.57;10.03;;;;;;;;;;5114949;28;20210;-82
2021/12/14 00:57:48;;;;;;;13.10;11.27;;;;;;;;;;5114663;28;20211;-82
2021/12/14 01:00:18;;;;;;;14.60;12.50;;;;;;;;;;5114851;28;20234;-82
2021/12/14 01:02:47;;;;;;;12.13;9.33;;;;;;;;;;5114521;28;20262;-82
2021/12/14 01:05:17;;;;;;;9.27;7.30;;;;;;;;;;5114626;28;20206;-82
2021/12/14 01:07:45;;;;;;;6.37;3.73;;;;;;;;;;5114428;28;20204;-82
2021/12/14 01:10:16;;;;;;;19.30;13.77;;;;;;;;;;5114831;28;20254;-82
2021/12/14 01:12:50;;;;;;;10.03;7.80;;;;;;;;;;5115108;28;20250;-82
2021/12/14 01:15:29;;;;;;;8.07;7.33;;;;;;;;;;5114737;28;20214;-82
2021/12/14 01:18:14;;;;;;;13.50;11.07;;;;;;;;;;5114454;28;20186;-82
2021/12/14 01:20:46;;;;;;;5.50;4.77;;;;;;;;;;5114376;28;20248;-82
2021/12/14 01:23:18;;;;;;;8.90;7.93;;;;;;;;;;5114556;28;20229;-82
2021/12/14 01:25:49;;;;;;;8.40;7.07;;;;;;;;;;5114554;28;20214;-82
2021/12/14 01:28:20;;;;;;;6.40;5.80;;;;;;;;;;5114809;28;20208;-82
2021/12/14 01:30:58;;;;;;;7.70;5.00;;;;;;;;;;5114125;28;20221;-82
2021/12/14 01:33:28;;;;;;;18.77;14.03;;;;;;;;;;5114064;28;20196;-82
2021/12/14 01:35:57;;;;;;;8.80;6.07;;;;;;;;;;5114021;28;20209;-82
2021/12/14 01:38:45;;;;;;;14.23;11.10;;;;;;;;;;5114309;28;20264;-82
2021/12/14 01:41:16;;;;;;;20.00;14.33;;;;;;;;;;5113958;28;20192;-82
2021/12/14 01:43:48;;;;;;;13.50;8.70;;;;;;;;;;5114152;28;20210;-82
2021/12/14 01:46:18;;;;;;;23.60;16.90;;;;;;;;;;5113829;28;20248;-82
2021/12/14 01:48:47;;;;;;;19.90;13.63;;;;;;;;;;5113991;28;20194;-82
2021/12/14 01:51:16;;;;;;;15.40;9.97;;;;;;;;;;5113928;28;20237;-82
2021/12/14 01:53:47;;;;;;;7.03;5.37;;;;;;;;;;5113928;28;20282;-82
2021/12/14 01:56:17;;;;;;;19.40;12.00;;;;;;;;;;5114110;28;20188;-82
2021/12/14 01:58:48;;;;;;;11.33;7.80;;;;;;;;;;5113867;28;20296;-82
2021/12/14 02:01:20;;;;;;;26.77;8.77;;;;;;;;;;5114179;28;20216;-82
2021/12/14 02:03:50;;;;;;;11.47;9.13;;;;;;;;;;5114070;28;20227;-82
2021/12/14 02:06:22;;;;;;;13.23;7.87;;;;;;;;;;5113892;28;20212;-82
2021/12/14 02:08:55;;;;;;;14.17;9.60;;;;;;;;;;5114041;28;20198;-82
2021/12/14 02:11:25;;;;;;;10.90;8.53;;;;;;;;;;5114093;28;20189;-82
2021/12/14 02:13:56;;;;;;;13.63;10.83;;;;;;;;;;5113616;28;20237;-82
2021/12/14 02:16:25;;;;;;;11.50;9.47;;;;;;;;;;5114221;28;20229;-82
2021/12/14 02:18:56;;;;;;;16.20;12.17;;;;;;;;;;5113665;28;20209;-82
2021/12/14 02:21:26;;;;;;;17.57;14.17;;;;;;;;;;5113882;28;20199;-82
2021/12/14 02:23:55;;;;;;;8.60;6.03;;;;;;;;;;5113318;28;20194;-82
2021/12/14 02:26:25;;;;;;;10.83;6.97;;;;;;;;;;5113902;28;20268;-82
2021/12/14 02:28:54;;;;;;;13.53;10.90;;;;;;;;;;5113768;28;20245;-82
2021/12/14 02:31:25;;;;;;;10.83;9.50;;;;;;;;;;5113586;28;20271;-82
2021/12/14 02:33:55;;;;;;;10.50;7.23;;;;;;;;;;5113549;28;20210;-83
2021/12/14 02:36:27;;;;;;;6.90;4.27;;;;;;;;;;5113481;28;20202;-82
2021/12/14 02:39:06;;;;;;;27.37;23.57;;;;;;;;;;5113328;28;20186;-82
2021/12/14 02:41:35;;;;;;;11.93;10.40;;;;;;;;;;5113659;28;20187;-82
2021/12/14 02:44:04;;;;;;;6.57;5.97;;;;;;;;;;5113615;28;20235;-82
2021/12/14 02:46:36;;;;;;;17.13;12.93;;;;;;;;;;5113449;28;20211;-82
2021/12/14 02:49:06;;;;;;;9.33;7.33;;;;;;;;;;5113283;28;20225;-82
2021/12/14 02:51:38;;;;;;;11.43;8.17;;;;;;;;;;5112980;28;20263;-82
2021/12/14 02:54:08;;;;;;;11.93;7.97;;;;;;;;;;5113777;28;20216;-82
2021/12/14 02:56:38;;;;;;;18.77;14.17;;;;;;;;;;5113344;28;20199;-82
2021/12/14 02:59:08;;;;;;;8.87;7.30;;;;;;;;;;5113767;28;20235;-82
2021/12/14 03:01:38;;;;;;;12.10;9.37;;;;;;;;;;5113289;28;20260;-82
2021/12/14 03:04:08;;;;;;;14.80;9.63;;;;;;;;;;5113519;28;20218;-82
2021/12/14 03:06:45;;;;;;;20.23;13.67;;;;;;;;;;5112897;28;20301;-82
2021/12/14 03:09:31;;;;;;;11.37;9.63;;;;;;;;;;5113464;28;20220;-83
2021/12/14 03:12:01;;;;;;;22.43;9.83;;;;;;;;;;5113174;28;20218;-83
2021/12/14 03:14:30;;;;;;;11.60;8.30;;;;;;;;;;5114670;28;20213;-82
2021/12/14 03:16:58;;;;;;;21.70;15.40;;;;;;;;;;5117059;28;20290;-82
2021/12/14 03:19:27;;;;;;;15.97;10.60;;;;;;;;;;5116676;28;20289;-82
2021/12/14 03:21:57;;;;;;;11.47;7.73;;;;;;;;;;5116480;28;20203;-82
2021/12/14 03:24:25;;;;;;;8.20;7.13;;;;;;;;;;5116392;28;20200;-82
2021/12/14 03:26:55;;;;;;;22.57;15.73;;;;;;;;;;5116394;28;20252;-82
2021/12/14 03:29:25;;;;;;;17.67;11.37;;;;;;;;;;5116569;28;20264;-82
2021/12/14 03:31:56;;;;;;;13.37;8.30;;;;;;;;;;5116560;28;20246;-82
2021/12/14 03:34:27;;;;;;;17.10;10.53;;;;;;;;;;5116562;28;20228;-82
2021/12/14 03:36:58;;;;;;;27.47;15.53;;;;;;;;;;5116421;28;20205;-82
2021/12/14 03:39:27;;;;;;;11.33;8.70;;;;;;;;;;5115972;28;20234;-82
2021/12/14 03:41:58;;;;;;;29.73;20.67;;;;;;;;;;5116210;28;20205;-82
2021/12/14 03:44:28;;;;;;;27.03;17.27;;;;;;;;;;5116477;27;20195;-82
2021/12/14 03:46:57;;;;;;;28.93;18.77;;;;;;;;;;5116639;28;20223;-82
2021/12/14 03:49:28;;;;;;;20.33;15.40;;;;;;;;;;5116470;28;20227;-82
2021/12/14 03:51:58;;;;;;;9.33;5.97;;;;;;;;;;5116123;28;20258;-82
2021/12/14 03:54:27;;;;;;;3.83;3.50;;;;;;;;;;5116958;28;20262;-82
2021/12/14 03:56:56;;;;;;;16.90;12.93;;;;;;;;;;5116607;28;20230;-82
2021/12/14 03:59:26;;;;;;;19.93;9.70;;;;;;;;;;5116313;28;20238;-82
2021/12/14 04:01:55;;;;;;;5.77;4.37;;;;;;;;;;5116506;28;20204;-82
2021/12/14 04:04:25;;;;;;;9.83;8.23;;;;;;;;;;5116152;28;20215;-82
2021/12/14 04:06:56;;;;;;;24.30;15.93;;;;;;;;;;5116451;28;20256;-82
2021/12/14 04:09:28;;;;;;;23.57;15.23;;;;;;;;;;5116307;28;20205;-82
2021/12/14 04:11:58;;;;;;;13.27;8.57;;;;;;;;;;5116264;28;20258;-82
2021/12/14 04:14:29;;;;;;;12.80;9.00;;;;;;;;;;5116234;27;20215;-83
2021/12/14 04:16:58;;;;;;;8.83;6.97;;;;;;;;;;5116202;28;20289;-83
2021/12/14 04:19:29;;;;;;;14.67;11.87;;;;;;;;;;5116129;28;20201;-83
2021/12/14 04:21:59;;;;;;;19.57;12.93;;;;;;;;;;5116289;28;20212;-82
2021/12/14 04:24:31;;;;;;;19.00;11.57;;;;;;;;;;5116373;28;20202;-82
2021/12/14 04:27:00;;;;;;;30.97;24.63;;;;;;;;;;5116079;28;20182;-82
2021/12/14 04:29:29;;;;;;;20.53;14.57;;;;;;;;;;5116055;28;20261;-82
2021/12/14 04:31:57;;;;;;;19.03;12.43;;;;;;;;;;5115650;28;20237;-82
2021/12/14 04:34:26;;;;;;;10.27;8.10;;;;;;;;;;5115680;28;20222;-82
2021/12/14 04:36:56;;;;;;;9.97;7.83;;;;;;;;;;5115893;28;20240;-82
2021/12/14 04:39:39;;;;;;;5.47;4.97;;;;;;;;;;5115392;28;20242;-82
2021/12/14 04:53:34;;;;;;;13.43;9.80;;;;;;;;;;5081538;28;20293;-82
2021/12/14 04:56:07;;;;;;;15.70;9.80;;;;;;;;;;5115112;28;20229;-82
2021/12/14 04:58:40;;;;;;;30.97;15.00;;;;;;;;;;5115653;28;20238;-82
2021/12/14 05:01:09;;;;;;;22.70;13.23;;;;;;;;;;5115494;28;20280;-82
2021/12/14 05:03:40;;;;;;;7.47;4.57;;;;;;;;;;5115008;28;20232;-82
2021/12/14 05:06:14;;;;;;;19.70;11.97;;;;;;;;;;5115056;28;20223;-82
2021/12/14 05:11:38;;;;;;;16.50;8.93;;;;;;;;;;5115429;28;20274;-82
2021/12/14 05:14:11;;;;;;;11.50;7.37;;;;;;;;;;5115093;28;20209;-82
2021/12/14 05:16:40;;;;;;;15.53;10.33;;;;;;;;;;5115239;28;20289;-82
2021/12/14 05:19:29;;;;;;;11.20;7.40;;;;;;;;;;5114769;28;20206;-82
2021/12/14 05:22:02;;;;;;;17.13;10.67;;;;;;;;;;5114944;28;20238;-82
2021/12/14 05:24:30;;;;;;;15.13;8.10;;;;;;;;;;5115238;28;20223;-82
2021/12/14 05:27:00;;;;;;;14.07;7.83;;;;;;;;;;5114973;28;20281;-82
2021/12/14 05:29:30;;;;;;;13.27;9.97;;;;;;;;;;5114779;28;20268;-82
2021/12/14 05:32:00;;;;;;;17.77;13.60;;;;;;;;;;5115040;28;20200;-82
2021/12/14 05:34:32;;;;;;;3.60;2.53;;;;;;;;;;5114954;28;20195;-82
2021/12/14 05:37:00;;;;;;;18.37;11.97;;;;;;;;;;5113796;28;20234;-82
2021/12/14 05:39:46;;;;;;;11.30;6.73;;;;;;;;;;5114610;28;20195;-82
2021/12/14 05:45:06;;;;;;;11.87;8.10;;;;;;;;;;5114595;28;20219;-82
2021/12/14 05:47:41;;;;;;;21.03;12.10;;;;;;;;;;5114796;28;20191;-82
2021/12/14 05:50:10;;;;;;;28.37;20.80;;;;;;;;;;5114036;28;20234;-83
2021/12/14 05:52:38;;;;;;;13.77;9.17;;;;;;;;;;5114126;28;20307;-82
2021/12/14 05:55:07;;;;;;;9.40;6.87;;;;;;;;;;5114699;28;20267;-82
2021/12/14 05:57:36;;;;;;;7.53;4.97;;;;;;;;;;5114625;28;20222;-82
2021/12/14 06:00:07;;;;;;;10.90;7.57;;;;;;;;;;5114424;28;20209;-82
2021/12/14 06:02:38;;;;;;;9.27;7.57;;;;;;;;;;5114239;28;20229;-82
2021/12/14 06:05:06;;;;;;;8.10;6.17;;;;;;;;;;5114289;28;20195;-82
2021/12/14 06:07:35;;;;;;;8.80;6.93;;;;;;;;;;5114449;28;20243;-83
2021/12/14 06:10:03;;;;;;;15.37;11.10;;;;;;;;;;5114148;28;20295;-82
2021/12/14 06:12:33;;;;;;;7.57;4.03;;;;;;;;;;5114390;28;20223;-82
2021/12/14 06:15:02;;;;;;;12.53;7.80;;;;;;;;;;5114511;28;20227;-83
2021/12/14 06:17:33;;;;;;;15.50;8.27;;;;;;;;;;5114164;28;20202;-82
2021/12/14 06:20:07;;;;;;;6.70;4.53;;;;;;;;;;5113777;28;20208;-82
2021/12/14 06:22:36;;;;;;;12.80;8.50;;;;;;;;;;5114503;28;20186;-82
2021/12/14 06:25:07;;;;;;;8.67;4.37;;;;;;;;;;5114061;28;20206;-82
2021/12/14 06:27:36;;;;;;;4.77;3.97;;;;;;;;;;5113865;28;20206;-82
2021/12/14 06:30:06;;;;;;;8.73;5.37;;;;;;;;;;5113911;28;20319;-82
2021/12/14 06:32:37;;;;;;;5.80;5.23;;;;;;;;;;5109393;28;20217;-82
2021/12/14 06:35:07;;;;;;;8.37;5.63;;;;;;;;;;5106783;28;20239;-82
2021/12/14 06:38:24;;;;;;;22.93;8.97;;;;;;;;;;5110007;28;20235;-82
2021/12/14 06:40:54;;;;;;;11.50;8.33;;;;;;;;;;5114416;28;20203;-82
2021/12/14 06:43:24;;;;;;;7.90;7.27;;;;;;;;;;5113965;28;20186;-82
2021/12/14 06:45:55;;;;;;;15.80;9.07;;;;;;;;;;5114278;28;20202;-82
2021/12/14 06:48:26;;;;;;;18.07;11.93;;;;;;;;;;5113926;28;20200;-82
2021/12/14 06:50:56;;;;;;;23.60;12.93;;;;;;;;;;5117320;28;20238;-83
2021/12/14 06:53:25;;;;;;;8.87;5.87;;;;;;;;;;5117760;28;20200;-81
2021/12/14 06:55:55;;;;;;;19.73;8.70;;;;;;;;;;5117966;28;20256;-81
2021/12/14 06:58:24;;;;;;;26.77;14.63;;;;;;;;;;5117879;28;20203;-81
2021/12/14 07:01:02;;;;;;;12.10;8.13;;;;;;;;;;5118162;28;20193;-81
2021/12/14 07:03:44;;;;;;;59.23;17.03;;;;;;;;;;5117724;28;20227;-81
2021/12/14 07:06:14;;;;;;;21.47;10.30;;;;;;;;;;5118101;28;20199;-81
2021/12/14 07:08:43;;;;;;;16.57;8.40;;;;;;;;;;5117872;28;20230;-81
2021/12/14 07:11:11;;;;;;;17.13;9.33;;;;;;;;;;5117987;28;20203;-82
2021/12/14 07:13:42;;;;;;;17.17;8.60;;;;;;;;;;5117313;28;20235;-81
2021/12/14 07:16:19;;;;;;;13.83;6.53;;;;;;;;;;5117977;28;20231;-82
2021/12/14 07:18:57;;;;;;;17.53;9.27;;;;;;;;;;5117564;28;20226;-82
2021/12/14 07:21:35;;;;;;;12.70;8.73;;;;;;;;;;5117618;28;20230;-82
2021/12/14 07:24:28;;;;;;;6.90;5.53;;;;;;;;;;5116923;28;20200;-82
2021/12/14 07:27:11;;;;;;;20.17;11.07;;;;;;;;;;5117414;28;20191;-83
2021/12/14 07:29:40;;;;;;;26.77;14.70;;;;;;;;;;5117307;28;20223;-83
2021/12/14 07:32:09;;;;;;;21.80;9.90;;;;;;;;;;5117202;28;20212;-82
2021/12/14 07:34:40;;;;;;;28.60;14.80;;;;;;;;;;5116992;28;20246;-82
2021/12/14 07:37:08;;;;;;;15.17;7.07;;;;;;;;;;5117267;28;20188;-82
2021/12/14 07:39:37;;;;;;;3.90;3.63;;;;;;;;;;5117213;28;20237;-82
2021/12/14 07:42:06;;;;;;;15.70;9.30;;;;;;;;;;5117136;28;20202;-82
2021/12/14 07:44:36;;;;;;;26.40;14.40;;;;;;;;;;5116844;28;20270;-82
2021/12/14 07:47:06;;;;;;;8.57;5.47;;;;;;;;;;5117010;28;20271;-82
2021/12/14 07:49:36;;;;;;;22.23;12.37;;;;;;;;;;5116790;28;20228;-83
2021/12/14 07:52:12;;;;;;;14.37;8.73;;;;;;;;;;5116638;28;20324;-83
2021/12/14 07:54:48;;;;;;;7.77;5.67;;;;;;;;;;5116846;28;20324;-82
2021/12/14 07:57:18;;;;;;;11.60;6.53;;;;;;;;;;5116393;28;20244;-85
2021/12/14 07:59:47;;;;;;;7.93;3.80;;;;;;;;;;5116073;28;20195;-82
2021/12/14 08:02:17;;;;;;;19.83;11.50;;;;;;;;;;5114628;28;20221;-83
2021/12/14 08:04:48;;;;;;;23.20;11.97;;;;;;;;;;5112927;28;20258;-82
2021/12/14 08:07:26;;;;;;;5.80;4.27;;;;;;;;;;5116320;28;20578;-83
2021/12/14 08:10:05;;;;;;;14.17;11.00;;;;;;;;;;5103261;28;20242;-83
2021/12/14 08:12:38;;;;;;;6.10;4.37;;;;;;;;;;5103612;28;20295;-84
2021/12/14 08:15:09;;;;;;;5.40;3.27;;;;;;;;;;5111927;28;20235;-85
2021/12/14 08:17:40;;;;;;;17.93;9.07;;;;;;;;;;5110997;28;20231;-85
2021/12/14 08:20:10;;;;;;;9.47;6.37;;;;;;;;;;5105693;28;20193;-84
2021/12/14 08:22:56;;;;;;;7.30;4.70;;;;;;;;;;5099696;28;20193;-83
2021/12/14 08:25:26;;;;;;;9.47;6.70;;;;;;;;;;5095163;28;20285;-84
2021/12/14 08:28:02;;;;;;;9.80;4.93;;;;;;;;;;5108101;28;20229;-84
2021/12/14 08:30:32;;;;;;;9.03;5.53;;;;;;;;;;5106128;28;20222;-82
2021/12/14 08:33:03;;;;;;;7.83;4.13;;;;;;;;;;5096459;28;20269;-82
2021/12/14 08:35:32;;;;;;;13.40;7.10;;;;;;;;;;5105828;28;20214;-84
2021/12/14 08:38:05;;;;;;;3.23;3.03;;;;;;;;;;5099457;28;20215;-82
2021/12/14 08:40:37;;;;;;;12.73;8.63;;;;;;;;;;5095055;28;20212;-83
2021/12/14 08:43:11;;;;;;;14.13;7.40;;;;;;;;;;5093726;28;20216;-82
2021/12/14 08:45:42;;;;;;;7.07;6.27;;;;;;;;;;5107227;28;20215;-83
2021/12/14 08:48:12;;;;;;;11.30;7.00;;;;;;;;;;5106658;28;20199;-83
2021/12/14 08:50:43;;;;;;;8.03;6.33;;;;;;;;;;5091767;28;20239;-82
2021/12/14 08:53:14;;;;;;;6.60;4.03;;;;;;;;;;5097803;28;20249;-85
2021/12/14 08:55:44;;;;;;;8.93;7.47;;;;;;;;;;5103911;28;20222;-82
2021/12/14 08:58:13;;;;;;;17.67;10.03;;;;;;;;;;5103989;28;20211;-83
2021/12/14 09:00:45;;;;;;;18.03;6.40;;;;;;;;;;5101788;28;20215;-83
2021/12/14 09:03:15;;;;;;;16.60;7.53;;;;;;;;;;5104116;28;20269;-84
2021/12/14 09:05:46;;;;;;;3.40;2.83;;;;;;;;;;5101390;28;20203;-83
2021/12/14 09:08:16;;;;;;;14.40;8.93;;;;;;;;;;5098417;28;20196;-84
2021/12/14 09:10:48;;;;;;;8.07;4.97;;;;;;;;;;5101659;28;20255;-85
2021/12/14 09:13:17;;;;;;;8.33;6.90;;;;;;;;;;5106654;28;20226;-85
2021/12/14 09:15:48;;;;;;;5.90;3.60;;;;;;;;;;5102408;28;20215;-85
2021/12/14 09:18:17;;;;;;;20.60;11.00;;;;;;;;;;5105334;28;20238;-84
2021/12/14 09:20:47;;;;;;;32.80;9.30;;;;;;;;;;5105108;28;20210;-82
2021/12/14 09:23:20;;;;;;;11.60;7.33;;;;;;;;;;5101555;28;20204;-84
2021/12/14 09:25:49;;;;;;;7.37;3.20;;;;;;;;;;5102470;28;20207;-86
2021/12/14 09:28:18;;;;;;;8.80;4.07;;;;;;;;;;5103369;28;20215;-86
2021/12/14 09:30:50;;;;;;;10.53;7.10;;;;;;;;;;5094717;28;20256;-84
2021/12/14 09:33:19;;;;;;;9.87;7.63;;;;;;;;;;5100129;28;20339;-84
2021/12/14 09:35:50;;;;;;;14.73;8.60;;;;;;;;;;5101558;28;20196;-84
2021/12/14 09:38:20;;;;;;;28.13;13.17;;;;;;;;;;5109928;28;20211;-84
2021/12/14 09:40:51;;;;;;;12.80;7.70;;;;;;;;;;5112365;28;20207;-83
2021/12/14 09:43:20;;;;;;;13.07;6.80;;;;;;;;;;5111158;28;20192;-83
2021/12/14 09:45:52;;;;;;;17.77;7.50;;;;;;;;;;5105806;28;20306;-85
2021/12/14 09:48:25;;;;;;;9.87;5.20;;;;;;;;;;5102135;28;20247;-85
2021/12/14 09:50:53;;;;;;;5.50;4.73;;;;;;;;;;5100841;28;20291;-84
2021/12/14 09:53:24;;;;;;;8.93;5.27;;;;;;;;;;5095730;28;20216;-84
2021/12/14 09:55:54;;;;;;;14.97;6.57;;;;;;;;;;5108756;28;20204;-84
2021/12/14 09:58:24;;;;;;;3.73;2.97;;;;;;;;;;5104394;28;20235;-84
2021/12/14 10:00:54;;;;;;;11.07;6.43;;;;;;;;;;5100530;28;20245;-86
2021/12/14 10:03:23;;;;;;;3.70;3.03;;;;;;;;;;5097739;28;20398;-86
2021/12/14 10:05:53;;;;;;;4.33;3.90;;;;;;;;;;5104787;28;20204;-84
2021/12/14 10:08:23;;;;;;;9.43;5.17;;;;;;;;;;5105166;28;20204;-85
2021/12/14 10:10:59;;;;;;;12.27;4.03;;;;;;;;;;5109057;28;20236;-83
2021/12/14 10:13:28;;;;;;;7.67;5.70;;;;;;;;;;5101882;28;20422;-83
2021/12/14 10:15:58;;;;;;;3.57;3.20;;;;;;;;;;5100383;28;20236;-82
2021/12/14 10:18:29;;;;;;;10.20;6.10;;;;;;;;;;5112337;28;20207;-83
2021/12/14 10:21:01;;;;;;;8.10;5.00;;;;;;;;;;5108497;28;20263;-83
2021/12/14 10:23:30;;;;;;;5.90;3.80;;;;;;;;;;5106751;28;20329;-83
2021/12/14 10:26:00;;;;;;;9.63;5.90;;;;;;;;;;5115199;28;20229;-83
2021/12/14 10:28:30;;;;;;;4.13;2.33;;;;;;;;;;5105937;28;20215;-83
2021/12/14 10:31:00;;;;;;;4.83;3.43;;;;;;;;;;5102787;28;20228;-83
2021/12/14 10:33:31;;;;;;;6.27;4.17;;;;;;;;;;5109989;28;20204;-82
2021/12/14 10:36:04;;;;;;;3.87;3.57;;;;;;;;;;5106441;28;20222;-84
2021/12/14 10:38:38;;;;;;;12.47;4.67;;;;;;;;;;5108327;28;20231;-82
2021/12/14 10:43:56;;;;;;;8.87;5.47;;;;;;;;;;5102735;28;20283;-84
2021/12/14 10:46:26;;;;;;;3.10;2.77;;;;;;;;;;5103358;28;20278;-81
2021/12/14 10:48:58;;;;;;;10.73;5.87;;;;;;;;;;5101363;28;20213;-82
2021/12/14 10:51:29;;;;;;;10.60;5.33;;;;;;;;;;5098200;28;20260;-82
2021/12/14 10:53:59;;;;;;;24.37;6.00;;;;;;;;;;5103676;28;20232;-81
2021/12/14 10:56:41;;;;;;;6.83;4.93;;;;;;;;;;5110585;28;20204;-82
2021/12/14 10:59:10;;;;;;;7.07;5.70;;;;;;;;;;5099457;28;20215;-82
2021/12/14 11:01:39;;;;;;;11.63;5.23;;;;;;;;;;5094731;28;20239;-83
2021/12/14 11:04:11;;;;;;;5.60;3.47;;;;;;;;;;5101324;28;20284;-83
2021/12/14 11:06:42;;;;;;;9.23;3.37;;;;;;;;;;5104701;28;20209;-82
2021/12/14 11:12:03;;;;;;;13.43;3.83;;;;;;;;;;5107128;28;20301;-82
2021/12/14 11:14:37;;;;;;;7.50;5.10;;;;;;;;;;5102352;28;20224;-82
2021/12/14 11:19:56;;;;;;;8.70;5.17;;;;;;;;;;5106237;28;20218;-82
2021/12/14 11:22:25;;;;;;;10.07;6.53;;;;;;;;;;5097057;28;20204;-82
2021/12/14 11:24:56;;;;;;;9.97;5.37;;;;;;;;;;5101023;28;20213;-83
2021/12/14 11:27:27;;;;;;;7.43;4.53;;;;;;;;;;5113806;28;20207;-83
2021/12/14 11:30:10;;;;;;;7.80;3.53;;;;;;;;;;5116964;28;20213;-84
2021/12/14 11:32:42;;;;;;;5.97;3.70;;;;;;;;;;5105530;28;20256;-83
2021/12/14 11:35:19;;;;;;;4.60;4.20;;;;;;;;;;5096380;28;20205;-82
2021/12/14 11:37:48;;;;;;;4.27;2.43;;;;;;;;;;5102706;28;20347;-83
2021/12/14 11:40:16;;;;;;;4.00;3.53;;;;;;;;;;5108131;28;20241;-83
2021/12/14 11:42:48;;;;;;;6.53;2.80;;;;;;;;;;5098924;28;20258;-84
2021/12/14 11:45:19;;;;;;;7.33;3.53;;;;;;;;;;5100331;28;20201;-84
2021/12/14 11:47:49;;;;;;;9.17;4.43;;;;;;;;;;5101091;28;20212;-84
2021/12/14 11:50:21;;;;;;;12.20;5.63;;;;;;;;;;5101727;28;20239;-84
2021/12/14 11:52:51;;;;;;;9.73;3.83;;;;;;;;;;5099372;28;20248;-84
2021/12/14 11:55:26;;;;;;;10.80;5.83;;;;;;;;;;5102717;28;20237;-84
2021/12/14 11:58:16;;;;;;;2.53;2.33;;;;;;;;;;5104279;28;20284;-83
2021/12/14 12:00:47;;;;;;;6.97;3.50;;;;;;;;;;5102452;28;20205;-83
2021/12/14 12:03:20;;;;;;;1.93;1.83;;;;;;;;;;5102445;28;20245;-83
2021/12/14 12:06:05;;;;;;;3.70;2.50;;;;;;;;;;5100842;28;20233;-81
2021/12/14 12:11:22;;;;;;;7.13;3.70;;;;;;;;;;5093176;28;20200;-82
2021/12/14 12:13:53;;;;;;;9.47;5.30;;;;;;;;;;5097479;28;20213;-82
2021/12/14 12:16:25;;;;;;;2.50;1.93;;;;;;;;;;5105189;28;20280;-83
2021/12/14 12:19:03;;;;;;;8.27;3.17;;;;;;;;;;5102801;28;20207;-83
2021/12/14 12:21:33;;;;;;;9.17;3.63;;;;;;;;;;5102064;28;20201;-83
2021/12/14 12:24:01;;;;;;;13.67;5.63;;;;;;;;;;5104341;28;20257;-83
2021/12/14 12:26:30;;;;;;;9.73;4.87;;;;;;;;;;5101556;28;20411;-83
2021/12/14 12:29:06;;;;;;;2.90;1.80;;;;;;;;;;5092458;28;20232;-82
2021/12/14 12:31:38;;;;;;;2.87;2.57;;;;;;;;;;5099224;28;20250;-82
2021/12/14 12:34:11;;;;;;;10.67;6.30;;;;;;;;;;5095245;28;20216;-82
2021/12/14 12:36:40;;;;;;;9.73;3.27;;;;;;;;;;5097115;28;20201;-82
2021/12/14 12:39:10;;;;;;;6.50;3.47;;;;;;;;;;5100196;28;20206;-83
2021/12/14 12:41:44;;;;;;;5.37;3.67;;;;;;;;;;5102151;28;20291;-82
2021/12/14 12:44:19;;;;;;;3.73;3.43;;;;;;;;;;5100686;28;20204;-83
2021/12/14 12:46:49;;;;;;;15.87;4.57;;;;;;;;;;5099478;28;20258;-82
2021/12/14 12:49:19;;;;;;;3.43;2.23;;;;;;;;;;5101104;28;20599;-82
2021/12/14 12:51:55;;;;;;;7.83;3.77;;;;;;;;;;5098570;28;20228;-82
2021/12/14 12:54:31;;;;;;;7.87;4.13;;;;;;;;;;5100224;28;20239;-82
2021/12/14 12:57:12;;;;;;;5.07;3.37;;;;;;;;;;5099269;28;20219;-81
2021/12/14 12:59:44;;;;;;;3.47;2.73;;;;;;;;;;5101912;28;20287;-82
2021/12/14 13:02:14;;;;;;;9.37;4.60;;;;;;;;;;5101483;28;20261;-82
2021/12/14 13:04:44;;;;;;;12.10;6.93;;;;;;;;;;5102082;28;20319;-81
2021/12/14 13:07:12;;;;;;;2.47;2.37;;;;;;;;;;5091722;28;20205;-82
2021/12/14 13:09:55;;;;;;;2.07;1.87;;;;;;;;;;5104513;28;20264;-82
2021/12/14 13:12:37;;;;;;;9.10;4.30;;;;;;;;;;5099272;28;20291;-83
2021/12/14 13:15:27;;;;;;;0.93;0.93;;;;;;;;;;5092217;28;20276;-84
2021/12/14 13:18:11;;;;;;;5.47;4.13;;;;;;;;;;5099851;28;20336;-83
2021/12/14 13:20:39;;;;;;;6.37;5.00;;;;;;;;;;5092338;28;20228;-83
2021/12/14 13:23:08;;;;;;;4.63;1.87;;;;;;;;;;5092421;28;20220;-82
2021/12/14 13:25:36;;;;;;;4.57;4.07;;;;;;;;;;5102439;28;20231;-82
2021/12/14 13:28:07;;;;;;;9.80;4.63;;;;;;;;;;5102786;28;20204;-83
2021/12/14 13:30:37;;;;;;;3.73;3.33;;;;;;;;;;5093086;28;20224;-84
2021/12/14 13:33:23;;;;;;;4.07;2.63;;;;;;;;;;5101007;28;20233;-84
2021/12/14 13:35:52;;;;;;;3.27;2.97;;;;;;;;;;5104594;28;20204;-80
2021/12/14 13:38:20;;;;;;;3.30;2.20;;;;;;;;;;5104325;28;20213;-82
2021/12/14 13:40:50;;;;;;;4.77;1.87;;;;;;;;;;5102948;28;20215;-83
2021/12/14 13:43:38;;;;;;;6.00;4.53;;;;;;;;;;5091906;28;20204;-82
2021/12/14 13:46:08;;;;;;;9.90;4.53;;;;;;;;;;5097448;28;20212;-83
2021/12/14 13:48:40;;;;;;;9.57;3.67;;;;;;;;;;5100303;28;20256;-82
2021/12/14 13:51:11;;;;;;;8.33;3.73;;;;;;;;;;5091608;28;20285;-82
2021/12/14 13:53:40;;;;;;;4.10;3.73;;;;;;;;;;5099249;28;20212;-82
2021/12/14 13:56:12;;;;;;;9.60;3.50;;;;;;;;;;5102717;28;20208;-83
2021/12/14 13:58:40;;;;;;;17.70;6.00;;;;;;;;;;5091242;28;20205;-82
2021/12/14 14:01:14;;;;;;;7.23;2.70;;;;;;;;;;5099731;28;20205;-83
2021/12/14 14:03:47;;;;;;;8.30;4.30;;;;;;;;;;5101377;28;20277;-81
2021/12/14 14:06:20;;;;;;;8.53;5.53;;;;;;;;;;5102066;28;20211;-81
2021/12/14 14:08:50;;;;;;;5.70;3.60;;;;;;;;;;5094567;28;20203;-82
2021/12/14 14:11:26;;;;;;;5.97;3.07;;;;;;;;;;5096670;28;20201;-82
2021/12/14 14:13:56;;;;;;;5.30;3.60;;;;;;;;;;5093841;28;20232;-83
2021/12/14 14:16:39;;;;;;;10.53;5.97;;;;;;;;;;5094921;28;20204;-82
2021/12/14 14:19:09;;;;;;;4.80;4.40;;;;;;;;;;5092014;28;20208;-82
2021/12/14 14:21:37;;;;;;;13.60;5.67;;;;;;;;;;5100953;28;20209;-82
2021/12/14 14:24:06;;;;;;;2.20;2.10;;;;;;;;;;5099358;28;20205;-82
2021/12/14 14:26:37;;;;;;;11.57;3.73;;;;;;;;;;5092695;28;20212;-82
2021/12/14 14:29:07;;;;;;;5.30;2.83;;;;;;;;;;5095725;28;20204;-82
2021/12/14 14:31:43;;;;;;;3.80;2.03;;;;;;;;;;5096500;28;20232;-82
2021/12/14 14:34:34;;;;;;;5.60;2.27;;;;;;;;;;5100924;28;20212;-83
2021/12/14 14:37:05;;;;;;;5.97;2.87;;;;;;;;;;5097313;28;20208;-83
2021/12/14 14:39:42;;;;;;;1.67;1.33;;;;;;;;;;5102150;28;20240;-82
2021/12/14 14:42:12;;;;;;;1.60;1.50;;;;;;;;;;5101687;28;20245;-82
2021/12/14 14:44:41;;;;;;;6.07;2.73;;;;;;;;;;5099371;28;20212;-82
2021/12/14 14:47:14;;;;;;;8.37;1.33;;;;;;;;;;5102850;28;20291;-82
2021/12/14 14:50:06;;;;;;;5.20;3.13;;;;;;;;;;5101452;28;20291;-82
2021/12/14 14:52:39;;;;;;;2.20;2.00;;;;;;;;;;5103034;28;20228;-82
2021/12/14 14:55:11;;;;;;;2.60;2.13;;;;;;;;;;5113771;28;20236;-82
2021/12/14 14:57:44;;;;;;;4.83;2.77;;;;;;;;;;5108466;28;20213;-82
2021/12/14 15:00:18;;;;;;;2.20;1.50;;;;;;;;;;5098016;28;20204;-81
2021/12/14 15:02:50;;;;;;;1.10;1.00;;;;;;;;;;5101142;28;20254;-82
2021/12/14 15:05:21;;;;;;;6.80;3.40;;;;;;;;;;5100345;28;20247;-83
2021/12/14 15:07:56;;;;;;;5.17;2.57;;;;;;;;;;5096074;28;20209;-82
2021/12/14 15:10:26;;;;;;;2.40;2.20;;;;;;;;;;5097106;28;20196;-82
2021/12/14 15:13:14;;;;;;;8.30;7.33;;;;;;;;;;5105108;28;20209;-82
2021/12/14 15:15:54;;;;;;;3.07;2.33;;;;;;;;;;5105837;28;20201;-83
2021/12/14 15:18:37;;;;;;;4.70;2.63;;;;;;;;;;5095309;28;20250;-82
2021/12/14 15:21:21;;;;;;;13.07;4.73;;;;;;;;;;5093886;28;20278;-82
2021/12/14 15:23:50;;;;;;;6.97;2.93;;;;;;;;;;5095604;28;20196;-82
2021/12/14 15:26:19;;;;;;;0.50;0.50;;;;;;;;;;5101373;28;20228;-83
2021/12/14 15:28:50;;;;;;;4.67;3.43;;;;;;;;;;5108209;28;20209;-84
2021/12/14 15:31:18;;;;;;;4.13;3.03;;;;;;;;;;5103153;28;20227;-84